Terminal Aerodrome Forecast
Issued by NWS Omaha/Valley, NE

Home | Current Version | Previous Version | Text Only | Print | Product List | Glossary On
Versions: 1 2 3 4 5 6 7 8 9 10 11 12 13 14 15 16 17 18 19 20 21 22 23 24 25 26 27 28
000
FTUS43 KOAX 291315 AAA
TAFOMA
TAF AMD
KOMA 291315Z 2913/3012 01010KT 6SM -SN BR SCT012 OVC070
      TEMPO 2913/2916 3SM -SN BR OVC012
     FM291800 01014KT 4SM -SN BR OVC020
     FM292300 36015KT P6SM OVC025
     FM300600 35012KT P6SM OVC090=

USA.gov is the U.S. government's official web portal to all federal, state and local government web resources and services.